Time;durP1;ratioP1;P1;durP2;ratioP2;P2;SDS_P1;SDS_P2;PMS_P1;PMS_P2;Temp;Humidity;BMP_temperature;BMP_pressure;BME280_temperature;BME280_humidity;BME280_pressure;Samples;Min_cycle;Max_cycle;Signal;HPM_P1;HPM_P2
2021/08/11 00:00:21;;;;;;;11.13;7.72;;;12.80;99.90;;;;;;5087891;28;20040;-85
2021/08/11 00:02:47;;;;;;;20.35;10.02;;;12.80;99.90;;;;;;5088389;28;20048;-84
2021/08/11 00:05:13;;;;;;;19.48;9.90;;;12.80;99.90;;;;;;5111807;28;20479;-84
2021/08/11 00:07:39;;;;;;;24.20;11.32;;;12.80;99.90;;;;;;5092959;28;20067;-84
2021/08/11 00:10:06;;;;;;;18.02;10.55;;;12.80;99.90;;;;;;5111669;28;20066;-84
2021/08/11 00:12:32;;;;;;;22.85;11.50;;;12.70;99.90;;;;;;5101275;28;20559;-84
2021/08/11 00:15:05;;;;;;;18.83;9.90;;;12.70;99.90;;;;;;5112009;28;20044;-84
2021/08/11 00:17:31;;;;;;;20.67;11.00;;;12.70;99.90;;;;;;5110802;28;20118;-83
2021/08/11 00:19:57;;;;;;;16.27;9.60;;;12.70;99.90;;;;;;5059416;28;20126;-84
2021/08/11 00:22:22;;;;;;;13.23;7.78;;;12.60;99.90;;;;;;5108894;28;20490;-85
2021/08/11 00:24:48;;;;;;;21.58;10.82;;;12.60;99.90;;;;;;5059093;28;20067;-84
2021/08/11 00:27:14;;;;;;;16.08;9.45;;;12.50;99.90;;;;;;5093519;28;20431;-84
2021/08/11 00:29:40;;;;;;;17.63;8.85;;;12.50;99.90;;;;;;5092475;28;20806;-84
2021/08/11 00:32:06;;;;;;;28.27;11.85;;;12.50;99.90;;;;;;5055920;28;20372;-83
2021/08/11 00:34:32;;;;;;;16.75;9.82;;;12.40;99.90;;;;;;5106879;28;20105;-84
2021/08/11 00:36:57;;;;;;;22.10;11.10;;;12.50;99.90;;;;;;5092488;28;20035;-84
2021/08/11 00:39:23;;;;;;;19.15;11.35;;;12.40;99.90;;;;;;5059439;28;20526;-84
2021/08/11 00:41:49;;;;;;;21.98;12.70;;;12.40;99.90;;;;;;5062090;28;20073;-83
2021/08/11 00:44:15;;;;;;;18.25;9.70;;;12.40;99.90;;;;;;5100257;28;20115;-83
2021/08/11 00:46:45;;;;;;;24.67;12.60;;;12.30;99.90;;;;;;5092121;28;20427;-83
2021/08/11 00:49:14;;;;;;;29.13;14.05;;;12.30;99.90;;;;;;5111047;28;20051;-83
2021/08/11 00:51:41;;;;;;;23.25;13.25;;;12.20;99.90;;;;;;5109853;28;20059;-85
2021/08/11 00:54:08;;;;;;;22.33;11.95;;;12.20;99.90;;;;;;5076005;28;20119;-83
2021/08/11 00:56:36;;;;;;;27.15;11.80;;;12.20;99.90;;;;;;5066304;28;20118;-84
2021/08/11 00:59:06;;;;;;;24.70;13.25;;;12.20;99.90;;;;;;5108662;28;20039;-84
2021/08/11 01:01:33;;;;;;;28.25;13.48;;;12.10;99.90;;;;;;5084811;28;20062;-84
2021/08/11 01:04:00;;;;;;;24.08;13.23;;;12.20;99.90;;;;;;5108082;28;20043;-83
2021/08/11 01:06:29;;;;;;;31.13;13.45;;;12.10;99.90;;;;;;5104085;28;20046;-85
2021/08/11 01:08:55;;;;;;;28.10;11.75;;;12.10;99.90;;;;;;5091483;28;20036;-83
2021/08/11 01:11:25;;;;;;;30.48;13.60;;;12.10;99.90;;;;;;5088789;28;20067;-83
2021/08/11 01:13:51;;;;;;;;;;;12.00;99.90;;;;;;5089410;28;20484;-83
2021/08/11 01:16:18;;;;;;;27.25;13.73;;;12.00;99.90;;;;;;5070652;28;20022;-84
2021/08/11 01:18:44;;;;;;;17.58;10.13;;;12.00;99.90;;;;;;5070445;28;20441;-84
2021/08/11 01:21:34;;;;;;;19.95;9.90;;;12.00;99.90;;;;;;5070710;28;20063;-84
2021/08/11 01:24:22;;;;;;;26.10;11.75;;;12.00;99.90;;;;;;5072160;28;20468;-84
2021/08/11 01:27:11;;;;;;;21.95;13.55;;;12.10;99.90;;;;;;5083392;28;20073;-83
2021/08/11 01:30:16;;;;;;;26.08;13.50;;;12.10;99.90;;;;;;5068277;28;20039;-83
2021/08/11 01:32:48;;;;;;;32.05;15.75;;;12.20;99.90;;;;;;5088881;28;20059;-84
2021/08/11 01:35:18;;;;;;;25.95;11.63;;;12.20;99.90;;;;;;5088836;28;20049;-84
2021/08/11 01:37:49;;;;;;;24.52;14.45;;;12.30;99.90;;;;;;5099351;28;20476;-83
2021/08/11 01:40:21;;;;;;;24.95;12.63;;;12.30;99.90;;;;;;5080372;28;20472;-83
2021/08/11 01:42:50;;;;;;;22.83;10.48;;;12.40;99.90;;;;;;5088127;28;20035;-83
2021/08/11 01:45:20;;;;;;;37.95;15.82;;;12.40;99.90;;;;;;5071356;28;20755;-85
2021/08/11 01:47:46;;;;;;;;;;;12.50;99.90;;;;;;5089330;28;20050;-84
2021/08/11 01:50:14;;;;;;;30.30;12.10;;;12.50;99.90;;;;;;5071747;28;20385;-84
2021/08/11 01:52:44;;;;;;;35.17;15.95;;;12.60;99.90;;;;;;5070124;28;20062;-85
2021/08/11 01:55:11;;;;;;;34.97;16.63;;;12.60;99.90;;;;;;5071302;28;20035;-83
2021/08/11 01:57:42;;;;;;;34.60;15.68;;;12.60;99.90;;;;;;5070429;28;20083;-84
2021/08/11 02:00:08;;;;;;;25.10;14.40;;;12.60;99.90;;;;;;5089417;28;20033;-84
2021/08/11 02:02:37;;;;;;;22.67;11.35;;;12.70;99.90;;;;;;5070463;28;20050;-86
2021/08/11 02:05:10;;;;;;;28.85;13.32;;;12.70;99.90;;;;;;5071225;28;20028;-84
2021/08/11 02:07:38;;;;;;;28.40;11.80;;;12.70;99.90;;;;;;5071090;28;20373;-85
2021/08/11 02:10:06;;;;;;;25.75;10.68;;;12.70;99.90;;;;;;5082060;28;20058;-84
2021/08/11 02:12:32;;;;;;;25.88;12.68;;;12.70;99.90;;;;;;5109506;28;20039;-83
2021/08/11 02:14:58;;;;;;;28.73;12.32;;;12.70;99.90;;;;;;5090938;28;20050;-84
2021/08/11 02:17:24;;;;;;;25.00;11.63;;;12.70;99.90;;;;;;5091587;28;20044;-84
2021/08/11 02:19:50;;;;;;;31.48;14.68;;;12.70;99.90;;;;;;5071189;28;20066;-84
2021/08/11 02:22:16;;;;;;;22.85;13.02;;;12.70;99.90;;;;;;5100279;28;20067;-84
2021/08/11 02:24:42;;;;;;;27.35;12.00;;;12.80;99.90;;;;;;5094548;28;20078;-84
2021/08/11 02:27:29;;;;;;;23.95;13.77;;;12.70;99.90;;;;;;5095480;28;20529;-83
2021/08/11 02:29:58;;;;;;;21.88;11.70;;;12.70;99.90;;;;;;5113135;28;20513;-83
2021/08/11 02:32:26;;;;;;;22.23;13.13;;;12.70;99.90;;;;;;5105322;28;20070;-83
2021/08/11 02:35:12;;;;;;;28.88;14.20;;;12.70;99.90;;;;;;5111434;28;20055;-84
2021/08/11 02:38:01;;;;;;;28.85;14.35;;;12.60;99.90;;;;;;5112996;28;20039;-85
2021/08/11 02:40:33;;;;;;;34.92;14.85;;;12.60;99.90;;;;;;5086964;28;20047;-84
2021/08/11 02:43:05;;;;;;;31.80;14.63;;;12.60;99.90;;;;;;5105586;28;20157;-84
2021/08/11 02:45:32;;;;;;;27.45;14.13;;;12.50;99.90;;;;;;5113076;28;20036;-84
2021/08/11 02:48:01;;;;;;;28.50;15.15;;;12.50;99.90;;;;;;5112479;28;20075;-84
2021/08/11 02:50:27;;;;;;;27.00;11.93;;;12.50;99.90;;;;;;5095167;28;20067;-84
2021/08/11 02:52:54;;;;;;;26.13;10.32;;;12.40;99.90;;;;;;5107358;28;20047;-85
2021/08/11 02:55:21;;;;;;;18.65;9.25;;;12.40;99.90;;;;;;5064366;28;20119;-85
2021/08/11 02:57:48;;;;;;;21.92;10.73;;;12.30;99.90;;;;;;5103842;28;20047;-85
2021/08/11 03:00:14;;;;;;;24.38;11.25;;;12.30;99.90;;;;;;5095006;28;20051;-85
2021/08/11 03:02:41;;;;;;;24.02;10.90;;;12.30;99.90;;;;;;5105618;28;20054;-86
2021/08/11 03:05:07;;;;;;;31.58;12.88;;;12.20;99.90;;;;;;5089924;28;20380;-84
2021/08/11 03:07:34;;;;;;;34.47;12.95;;;12.20;99.90;;;;;;5113026;28;20482;-85
2021/08/11 03:10:00;;;;;;;26.58;13.35;;;12.10;99.90;;;;;;5112056;28;20046;-84
2021/08/11 03:12:26;;;;;;;26.50;13.02;;;12.20;99.90;;;;;;5094657;28;20040;-84
2021/08/11 03:14:53;;;;;;;18.35;10.98;;;12.10;99.90;;;;;;5093959;28;20070;-84
2021/08/11 03:17:19;;;;;;;21.25;9.82;;;12.10;99.90;;;;;;5112415;28;20399;-85
2021/08/11 03:19:44;;;;;;;23.98;10.75;;;12.00;99.90;;;;;;5080762;28;20043;-85
2021/08/11 03:22:11;;;;;;;20.15;10.15;;;12.10;99.90;;;;;;5077283;28;20055;-85
2021/08/11 03:24:38;;;;;;;26.45;12.10;;;12.00;99.90;;;;;;5112502;28;20039;-85
2021/08/11 03:27:04;;;;;;;19.55;10.73;;;12.00;99.90;;;;;;5093688;28;20035;-85
2021/08/11 03:29:30;;;;;;;26.58;12.95;;;12.00;99.90;;;;;;5077696;28;20380;-85
2021/08/11 03:31:55;;;;;;;19.50;10.35;;;12.10;99.90;;;;;;5110756;28;20050;-85
2021/08/11 03:34:22;;;;;;;21.05;11.00;;;12.00;99.90;;;;;;5074403;28;20131;-83
2021/08/11 03:36:48;;;;;;;28.38;11.65;;;12.00;99.90;;;;;;5093251;28;20146;-83
2021/08/11 03:39:14;;;;;;;38.85;13.98;;;12.10;99.90;;;;;;5094027;28;20043;-84
2021/08/11 03:41:40;;;;;;;31.52;14.75;;;12.10;99.90;;;;;;5112077;28;20039;-83
2021/08/11 03:44:06;;;;;;;41.85;15.88;;;12.00;99.90;;;;;;5091411;28;20044;-84
2021/08/11 03:46:32;;;;;;;37.13;16.38;;;12.00;99.90;;;;;;5093928;28;20059;-83
2021/08/11 03:48:58;;;;;;;37.33;17.02;;;12.00;99.90;;;;;;5091972;28;20507;-83
2021/08/11 03:51:24;;;;;;;39.45;17.52;;;12.00;99.90;;;;;;5093396;28;20040;-84
2021/08/11 03:53:50;;;;;;;40.03;16.73;;;11.90;99.90;;;;;;5103875;28;20490;-84
2021/08/11 03:56:16;;;;;;;24.38;11.70;;;11.90;99.90;;;;;;5069940;28;20467;-84
2021/08/11 03:58:43;;;;;;;23.83;12.02;;;11.80;99.90;;;;;;5111311;28;20490;-85
2021/08/11 04:01:09;;;;;;;37.05;17.25;;;11.80;99.90;;;;;;5107330;28;20069;-84
2021/08/11 04:03:34;;;;;;;45.95;17.15;;;11.80;99.90;;;;;;5087612;28;20044;-84
2021/08/11 04:06:00;;;;;;;34.35;16.48;;;11.80;99.90;;;;;;5100010;28;20047;-84
2021/08/11 04:08:26;;;;;;;44.08;17.48;;;11.70;99.90;;;;;;5111688;28;20054;-84
2021/08/11 04:10:53;;;;;;;46.03;17.48;;;11.70;99.90;;;;;;5076076;28;20463;-84
2021/08/11 04:13:20;;;;;;;46.22;17.65;;;11.70;99.90;;;;;;5077149;28;20039;-84
2021/08/11 04:15:46;;;;;;;38.80;17.88;;;11.70;99.90;;;;;;5092933;28;20088;-86
2021/08/11 04:18:13;;;;;;;30.05;15.18;;;11.70;99.90;;;;;;5109450;28;20039;-83
2021/08/11 04:20:39;;;;;;;39.53;18.10;;;11.70;99.90;;;;;;5087129;28;20088;-84
2021/08/11 04:23:08;;;;;;;27.02;12.88;;;11.70;99.90;;;;;;5110493;28;20028;-84
2021/08/11 04:25:39;;;;;;;36.03;15.63;;;11.70;99.90;;;;;;5111246;28;20089;-84
2021/08/11 04:28:05;;;;;;;33.30;12.80;;;11.70;99.90;;;;;;5093162;28;20039;-85
2021/08/11 04:30:31;;;;;;;29.45;15.38;;;11.70;99.90;;;;;;5076360;28;20047;-84
2021/08/11 04:32:57;;;;;;;39.17;16.63;;;11.70;99.90;;;;;;5072482;28;20063;-85
2021/08/11 04:35:22;;;;;;;39.90;17.98;;;11.70;99.90;;;;;;5095460;28;20036;-85
2021/08/11 04:37:48;;;;;;;26.25;13.05;;;11.80;99.90;;;;;;5056135;28;20040;-86
2021/08/11 04:40:14;;;;;;;30.35;13.13;;;11.80;99.90;;;;;;5054654;28;20158;-85
2021/08/11 04:42:41;;;;;;;24.58;11.57;;;11.80;99.90;;;;;;5090858;28;20393;-85
2021/08/11 04:45:07;;;;;;;32.08;14.75;;;11.80;99.90;;;;;;5066853;28;20094;-85
2021/08/11 04:47:33;;;;;;;26.58;13.88;;;11.80;99.90;;;;;;5072040;28;20559;-85
2021/08/11 04:50:05;;;;;;;24.95;12.93;;;11.80;99.90;;;;;;5072619;28;20032;-85
2021/08/11 04:52:31;;;;;;;29.05;12.20;;;11.90;99.90;;;;;;5090397;28;20048;-85
2021/08/11 04:54:57;;;;;;;24.38;12.15;;;11.90;99.90;;;;;;5070958;28;20046;-83
2021/08/11 04:57:22;;;;;;;22.20;12.02;;;11.90;99.90;;;;;;5090102;28;20475;-83
2021/08/11 04:59:48;;;;;;;24.52;12.07;;;12.00;99.90;;;;;;5055787;28;20748;-84
2021/08/11 05:02:14;;;;;;;23.42;11.15;;;12.00;99.90;;;;;;5071409;28;20036;-85
2021/08/11 05:04:40;;;;;;;25.73;14.18;;;12.00;99.90;;;;;;5072088;28;20491;-85
2021/08/11 05:07:08;;;;;;;26.27;13.68;;;12.10;99.90;;;;;;5054805;28;20464;-85
2021/08/11 05:09:34;;;;;;;23.42;13.15;;;12.10;99.90;;;;;;5046488;28;20469;-84
2021/08/11 05:12:01;;;;;;;27.35;13.35;;;12.20;99.90;;;;;;5084312;28;20044;-85
2021/08/11 05:14:28;;;;;;;38.80;15.25;;;12.20;99.90;;;;;;5092519;28;20032;-85
2021/08/11 05:16:54;;;;;;;38.17;16.73;;;12.30;99.90;;;;;;5058306;28;20040;-86
2021/08/11 05:19:19;;;;;;;30.00;14.82;;;12.30;99.90;;;;;;5091708;28;20096;-85
2021/08/11 05:21:45;;;;;;;42.22;17.27;;;12.30;99.90;;;;;;5098950;28;20044;-85
2021/08/11 05:24:11;;;;;;;34.20;16.33;;;12.40;99.90;;;;;;5091546;28;20061;-85
2021/08/11 05:26:39;;;;;;;35.38;17.73;;;12.40;99.90;;;;;;5092317;28;20156;-84
2021/08/11 05:29:05;;;;;;;36.47;15.52;;;12.40;99.90;;;;;;5091437;28;20053;-84
2021/08/11 05:31:30;;;;;;;19.42;12.43;;;12.50;99.90;;;;;;5089953;28;20440;-84
2021/08/11 05:33:56;;;;;;;33.05;15.80;;;12.60;99.90;;;;;;5109719;28;20047;-87
2021/08/11 05:36:22;;;;;;;35.25;16.95;;;12.70;99.90;;;;;;5107065;28;20419;-84
2021/08/11 05:38:48;;;;;;;37.00;17.58;;;12.80;99.90;;;;;;5091888;28;20372;-84
2021/08/11 05:41:14;;;;;;;33.05;16.38;;;13.00;99.90;;;;;;5091130;28;20050;-84
2021/08/11 05:43:40;;;;;;;26.02;15.15;;;13.00;99.90;;;;;;5091887;28;20039;-84
2021/08/11 05:46:06;;;;;;;31.58;16.40;;;13.10;99.90;;;;;;5088522;28;20054;-84
2021/08/11 05:48:33;;;;;;;31.90;16.17;;;13.20;99.90;;;;;;5109808;28;20067;-85
2021/08/11 05:50:59;;;;;;;35.05;16.40;;;13.20;99.90;;;;;;5090328;28;20047;-86
2021/08/11 05:53:24;;;;;;;32.15;16.50;;;13.20;99.90;;;;;;5091380;28;20036;-85
2021/08/11 05:55:51;;;;;;;30.52;16.70;;;13.30;99.90;;;;;;5108571;28;20040;-85
2021/08/11 05:58:18;;;;;;;28.30;15.38;;;13.30;99.90;;;;;;5090572;28;20059;-85
2021/08/11 06:00:44;;;;;;;27.98;16.45;;;13.30;99.90;;;;;;5091616;28;20089;-85
2021/08/11 06:03:10;;;;;;;34.88;17.02;;;13.40;99.90;;;;;;5067867;28;20043;-85
2021/08/11 06:05:37;;;;;;;33.05;16.38;;;13.40;99.90;;;;;;5081688;28;20040;-85
2021/08/11 06:08:03;;;;;;;28.73;15.52;;;13.50;99.90;;;;;;5091623;28;20047;-85
2021/08/11 06:10:28;;;;;;;26.10;13.50;;;13.50;99.90;;;;;;5091305;28;20047;-85
2021/08/11 06:12:55;;;;;;;20.92;12.32;;;13.60;99.90;;;;;;5109632;28;20110;-84
2021/08/11 06:15:21;;;;;;;26.65;12.23;;;13.70;99.90;;;;;;5090599;28;20159;-85
2021/08/11 06:17:50;;;;;;;27.58;13.23;;;13.70;99.90;;;;;;5074296;28;20040;-84
2021/08/11 06:20:21;;;;;;;32.30;11.80;;;13.80;99.90;;;;;;5085549;28;20047;-84
2021/08/11 06:22:47;;;;;;;19.77;12.32;;;13.90;99.90;;;;;;5106867;28;20551;-84
2021/08/11 06:25:14;;;;;;;29.85;12.82;;;14.00;99.90;;;;;;5090748;28;20131;-84
2021/08/11 06:27:40;;;;;;;20.77;12.65;;;14.10;99.90;;;;;;5090799;28;20048;-84
2021/08/11 06:30:08;;;;;;;23.50;11.23;;;14.10;99.90;;;;;;5108825;28;20044;-84
2021/08/11 06:32:34;;;;;;;23.33;11.13;;;14.20;99.90;;;;;;5073069;28;20063;-84
2021/08/11 06:35:00;;;;;;;18.83;10.73;;;14.30;99.90;;;;;;5104348;28;20040;-85
2021/08/11 06:37:26;;;;;;;20.25;10.30;;;14.40;99.90;;;;;;5100769;28;20047;-84
2021/08/11 06:39:52;;;;;;;16.83;10.02;;;14.60;99.90;;;;;;5089211;28;20039;-84
2021/08/11 06:42:18;;;;;;;28.38;11.10;;;14.70;99.90;;;;;;5070312;28;20044;-85
2021/08/11 06:44:44;;;;;;;20.23;10.57;;;14.80;99.90;;;;;;5105262;28;20097;-85
2021/08/11 06:47:09;;;;;;;22.75;10.25;;;14.90;99.90;;;;;;5078564;28;20445;-86
2021/08/11 06:49:35;;;;;;;18.92;9.60;;;15.00;99.90;;;;;;5091097;28;20127;-85
2021/08/11 06:52:01;;;;;;;20.77;10.35;;;15.10;99.90;;;;;;5074450;28;20092;-85
2021/08/11 06:54:27;;;;;;;15.75;9.95;;;15.10;99.90;;;;;;5108477;28;20403;-85
2021/08/11 06:56:54;;;;;;;19.52;9.52;;;15.20;99.90;;;;;;5080033;28;20120;-86
2021/08/11 06:59:20;;;;;;;16.42;8.50;;;15.20;99.90;;;;;;5108214;28;20098;-85
2021/08/11 07:01:46;;;;;;;16.02;9.13;;;15.30;99.90;;;;;;5044632;28;20492;-86
2021/08/11 07:04:11;;;;;;;17.23;9.13;;;15.40;99.90;;;;;;5040605;28;20047;-85
2021/08/11 07:06:40;;;;;;;19.48;9.35;;;15.40;99.90;;;;;;5088766;28;20083;-85
2021/08/11 07:09:07;;;;;;;18.25;9.73;;;15.60;99.90;;;;;;5089815;28;20409;-86
2021/08/11 07:11:33;;;;;;;16.15;8.88;;;15.70;99.90;;;;;;5071100;28;20495;-85
2021/08/11 07:13:59;;;;;;;42.47;8.77;;;15.80;99.90;;;;;;5091857;28;20480;-85
2021/08/11 07:16:25;;;;;;;16.75;7.70;;;15.90;99.90;;;;;;5056267;28;20068;-85
2021/08/11 07:18:51;;;;;;;16.02;7.50;;;16.00;99.90;;;;;;5091176;28;20097;-86
2021/08/11 07:21:17;;;;;;;16.45;7.18;;;16.00;99.90;;;;;;5072297;28;20476;-86
2021/08/11 07:23:42;;;;;;;21.17;6.80;;;16.10;99.90;;;;;;5074255;28;20036;-85
2021/08/11 07:26:09;;;;;;;23.00;7.43;;;16.20;99.90;;;;;;5073380;28;20048;-86
2021/08/11 07:28:37;;;;;;;14.80;7.68;;;16.20;99.90;;;;;;5038360;28;20037;-86
2021/08/11 07:31:03;;;;;;;25.58;7.55;;;16.30;99.90;;;;;;5087467;28;20048;-85
2021/08/11 07:33:29;;;;;;;12.13;6.78;;;16.40;99.90;;;;;;5056719;28;20228;-85
2021/08/11 07:35:54;;;;;;;16.52;7.00;;;16.50;99.90;;;;;;5052869;28;20476;-85
2021/08/11 07:38:21;;;;;;;16.90;7.35;;;16.70;99.90;;;;;;5090918;28;20044;-85
2021/08/11 07:40:47;;;;;;;11.35;6.20;;;16.80;99.90;;;;;;5073943;28;20119;-85
2021/08/11 07:43:13;;;;;;;8.95;5.45;;;16.90;99.90;;;;;;5055931;28;20028;-85
2021/08/11 07:45:38;;;;;;;18.27;6.20;;;17.10;99.90;;;;;;5070086;28;20047;-85
2021/08/11 07:48:05;;;;;;;13.35;5.82;;;17.20;99.90;;;;;;5073680;28;20047;-86
2021/08/11 07:50:32;;;;;;;18.77;6.78;;;17.30;99.90;;;;;;5068063;28;20231;-86
2021/08/11 07:52:58;;;;;;;12.60;5.68;;;17.30;99.90;;;;;;5091803;28;20118;-85
2021/08/11 07:55:25;;;;;;;15.43;5.75;;;17.40;99.90;;;;;;5086139;28;20035;-86
2021/08/11 07:57:52;;;;;;;13.00;5.82;;;17.50;99.90;;;;;;5073323;28;20487;-85
2021/08/11 08:00:19;;;;;;;10.45;5.53;;;17.50;99.90;;;;;;5089932;28;20373;-86
2021/08/11 08:02:45;;;;;;;8.52;5.40;;;17.60;99.90;;;;;;5072946;28;20612;-86
2021/08/11 08:05:11;;;;;;;10.30;5.50;;;17.60;99.90;;;;;;5072099;28;20059;-87
2021/08/11 08:07:38;;;;;;;7.72;5.13;;;17.60;99.90;;;;;;5053469;28;20488;-87
2021/08/11 08:10:05;;;;;;;11.57;5.55;;;17.60;99.90;;;;;;5083996;28;20051;-86
2021/08/11 08:12:31;;;;;;;9.27;5.10;;;17.60;99.90;;;;;;5072428;28;20104;-86
2021/08/11 08:14:57;;;;;;;11.10;4.78;;;17.60;99.90;;;;;;5075976;28;20546;-87
2021/08/11 08:17:23;;;;;;;9.18;4.78;;;17.70;99.90;;;;;;5092530;28;20039;-86
2021/08/11 08:19:49;;;;;;;9.90;4.88;;;17.80;99.90;;;;;;5111620;28;20039;-86
2021/08/11 08:22:16;;;;;;;7.93;4.63;;;17.90;99.90;;;;;;5065222;28;20477;-87
2021/08/11 08:24:45;;;;;;;10.13;4.72;;;18.00;99.90;;;;;;5091720;28;20048;-86
2021/08/11 08:27:11;;;;;;;7.33;4.40;;;18.10;99.90;;;;;;5092560;28;20047;-87
2021/08/11 08:29:37;;;;;;;9.88;4.70;;;18.20;99.90;;;;;;5075167;28;20130;-86
2021/08/11 08:32:04;;;;;;;11.15;5.03;;;18.20;99.90;;;;;;5095646;28;20425;-86
2021/08/11 08:34:30;;;;;;;10.85;4.95;;;18.40;99.90;;;;;;5089385;28;20047;-86
2021/08/11 08:36:56;;;;;;;6.43;4.95;;;18.40;99.90;;;;;;5071945;28;20036;-87
2021/08/11 08:39:21;;;;;;;6.65;4.18;;;18.40;99.90;;;;;;5071771;28;20441;-86
2021/08/11 08:41:48;;;;;;;6.90;4.10;;;18.40;99.90;;;;;;5090000;28;20044;-86
2021/08/11 08:44:14;;;;;;;13.65;4.57;;;18.50;99.90;;;;;;5072039;28;20100;-87
2021/08/11 08:46:43;;;;;;;7.90;4.60;;;18.50;99.90;;;;;;5070565;28;20488;-87
2021/08/11 08:49:10;;;;;;;9.80;4.33;;;18.60;99.90;;;;;;5090521;28;20044;-86
2021/08/11 08:51:50;;;;;;;16.88;4.78;;;18.60;99.90;;;;;;5054744;28;20293;-86
2021/08/11 08:54:18;;;;;;;;;;;18.80;99.90;;;;;;5081141;28;20036;-87
2021/08/11 08:56:44;;;;;;;8.85;3.97;;;18.80;99.90;;;;;;5071771;28;20030;-87
2021/08/11 08:59:09;;;;;;;11.57;4.35;;;18.90;99.90;;;;;;5071270;28;20118;-86
2021/08/11 09:01:35;;;;;;;7.78;3.65;;;19.00;99.90;;;;;;5088607;28;20646;-86
2021/08/11 09:04:01;;;;;;;9.18;4.65;;;19.10;99.90;;;;;;5089617;28;20059;-86
2021/08/11 09:06:37;;;;;;;8.70;4.10;;;19.20;99.90;;;;;;5089211;28;20499;-85
2021/08/11 09:09:10;;;;;;;8.95;5.28;;;19.20;99.90;;;;;;5093962;28;20047;-86
2021/08/11 09:11:38;;;;;;;8.95;4.10;;;19.30;99.90;;;;;;5091436;28;20100;-85
2021/08/11 09:14:27;;;;;;;6.40;3.90;;;19.40;99.90;;;;;;5092345;28;20069;-85
2021/08/11 09:16:56;;;;;;;8.63;3.70;;;19.50;99.90;;;;;;5092418;28;20043;-85
2021/08/11 09:19:23;;;;;;;9.52;3.95;;;19.60;99.90;;;;;;5074761;28;20047;-85
2021/08/11 09:22:11;;;;;;;9.00;4.03;;;19.80;99.90;;;;;;5092123;28;20123;-85
2021/08/11 09:24:40;;;;;;;7.38;3.83;;;19.80;99.90;;;;;;5088469;28;20051;-86
2021/08/11 09:27:26;;;;;;;6.40;3.70;;;19.80;99.90;;;;;;5094494;28;20056;-87
2021/08/11 09:30:12;;;;;;;9.35;4.05;;;20.00;99.90;;;;;;5109990;28;20176;-87
2021/08/11 09:33:13;;;;;;;5.40;3.42;;;20.00;99.90;;;;;;5107860;28;20659;-87
2021/08/11 09:35:38;;;;;;;12.43;4.55;;;20.00;99.90;;;;;;5071507;28;20201;-87
2021/08/11 09:38:07;;;;;;;8.13;4.18;;;19.90;99.90;;;;;;5069501;28;20420;-87
2021/08/11 09:40:36;;;;;;;6.40;3.63;;;20.00;99.90;;;;;;5088181;28;20536;-87
2021/08/11 09:43:06;;;;;;;7.53;3.47;;;20.00;99.90;;;;;;5071314;28;20083;-87
2021/08/11 09:45:52;;;;;;;4.57;3.15;;;20.10;99.90;;;;;;5077972;28;20039;-84
2021/08/11 09:48:23;;;;;;;7.28;3.30;;;20.30;99.90;;;;;;5070465;28;20472;-85
2021/08/11 09:51:04;;;;;;;6.78;3.55;;;20.40;99.90;;;;;;5088807;28;20487;-85
2021/08/11 09:53:29;;;;;;;13.05;3.55;;;20.50;99.90;;;;;;5070325;28;20079;-84
2021/08/11 09:56:09;;;;;;;7.90;3.67;;;20.50;99.90;;;;;;5088515;28;20060;-85
2021/08/11 09:58:38;;;;;;;5.72;2.95;;;20.70;99.90;;;;;;5068807;28;20101;-85
2021/08/11 10:01:06;;;;;;;4.80;3.42;;;20.80;99.90;;;;;;5054040;28;20070;-84
2021/08/11 10:03:33;;;;;;;6.53;3.20;;;20.80;99.90;;;;;;5088246;28;20392;-84
2021/08/11 10:05:59;;;;;;;6.57;3.53;;;20.90;99.90;;;;;;5054836;28;20540;-82
2021/08/11 10:08:32;;;;;;;7.60;3.47;;;21.00;99.90;;;;;;5069963;28;20055;-85
2021/08/11 10:10:58;;;;;;;5.20;3.33;;;21.10;99.90;;;;;;5107344;28;20036;-82
2021/08/11 10:13:24;;;;;;;6.28;3.35;;;21.20;99.90;;;;;;5069599;28;20066;-85
2021/08/11 10:15:51;;;;;;;5.30;3.05;;;21.20;99.90;;;;;;5053440;28;20036;-82
2021/08/11 10:18:22;;;;;;;6.22;2.97;;;21.30;99.90;;;;;;5070195;28;20046;-83
2021/08/11 10:20:50;;;;;;;8.85;3.08;;;21.30;99.90;;;;;;5087471;28;20075;-85
2021/08/11 10:23:19;;;;;;;5.82;3.33;;;21.40;99.90;;;;;;5089801;28;20044;-85
2021/08/11 10:25:46;;;;;;;4.50;2.85;;;21.40;99.90;;;;;;5072209;28;20051;-85
2021/08/11 10:28:12;;;;;;;4.68;2.70;;;21.50;99.90;;;;;;5073175;28;20065;-88
2021/08/11 10:30:38;;;;;;;5.50;2.70;;;21.50;99.90;;;;;;5091497;28;20044;-86
2021/08/11 10:33:05;;;;;;;4.20;2.92;;;21.60;99.90;;;;;;5056676;28;20040;-86
2021/08/11 10:35:32;;;;;;;2.80;2.53;;;21.70;99.90;;;;;;5054631;28;20119;-85
2021/08/11 10:37:59;;;;;;;7.63;2.67;;;21.70;99.90;;;;;;5043048;28;20037;-84
2021/08/11 10:40:26;;;;;;;3.08;2.60;;;21.70;99.90;;;;;;5076511;28;20143;-83
2021/08/11 10:42:56;;;;;;;3.55;2.35;;;21.70;99.90;;;;;;5058290;28;20044;-85
2021/08/11 10:45:25;;;;;;;3.25;2.85;;;21.80;99.90;;;;;;5091348;28;20044;-85
2021/08/11 10:47:51;;;;;;;2.83;2.45;;;21.90;99.90;;;;;;5091631;28;20050;-82
2021/08/11 10:50:17;;;;;;;4.75;2.90;;;21.90;99.90;;;;;;5073449;28;20040;-85
2021/08/11 10:52:44;;;;;;;5.05;2.30;;;22.00;99.90;;;;;;5072769;28;20048;-84
2021/08/11 10:55:10;;;;;;;5.22;2.70;;;22.00;99.90;;;;;;5057972;28;20071;-84
2021/08/11 10:57:36;;;;;;;3.83;2.53;;;22.10;99.90;;;;;;5093484;28;20126;-84
2021/08/11 11:00:10;;;;;;;4.57;2.78;;;22.30;99.90;;;;;;5093639;28;20067;-84
2021/08/11 11:02:39;;;;;;;3.85;2.38;;;22.30;99.90;;;;;;5053176;28;20058;-84
2021/08/11 11:05:20;;;;;;;6.85;2.65;;;22.40;99.90;;;;;;5079336;28;20040;-87
2021/08/11 11:08:14;;;;;;;6.80;2.70;;;22.50;99.90;;;;;;5090628;28;20071;-85
2021/08/11 11:10:43;;;;;;;8.57;2.88;;;22.70;99.90;;;;;;5074137;28;20032;-87
2021/08/11 11:13:25;;;;;;;5.10;2.70;;;22.70;99.90;;;;;;5093595;28;20051;-85
2021/08/11 11:15:52;;;;;;;5.78;2.55;;;22.80;99.90;;;;;;5074687;28;20040;-86
2021/08/11 11:21:06;;;;;;;4.13;2.42;;;23.00;99.90;;;;;;5073526;28;20048;-86
2021/08/11 11:23:33;;;;;;;5.05;2.83;;;23.10;99.90;;;;;;5063871;28;20076;-87
2021/08/11 11:26:07;;;;;;;5.35;2.70;;;23.30;99.90;;;;;;5089893;28;20040;-85
2021/08/11 11:28:58;;;;;;;6.82;2.58;;;23.30;99.90;;;;;;5075095;28;20476;-87
2021/08/11 11:31:50;;;;;;;7.68;2.72;;;23.30;99.90;;;;;;5074886;28;20119;-85
2021/08/11 11:34:22;;;;;;;4.20;2.42;;;23.20;99.90;;;;;;5076037;28;20048;-85
2021/08/11 11:36:57;;;;;;;5.15;2.72;;;23.60;99.90;;;;;;5088231;28;20110;-86
2021/08/11 11:39:25;;;;;;;8.90;2.08;;;23.70;99.90;;;;;;5074522;28;20036;-83
2021/08/11 11:42:06;;;;;;;3.38;2.53;;;23.90;99.90;;;;;;5092591;28;20040;-84
2021/08/11 11:44:42;;;;;;;6.07;2.40;;;23.80;99.90;;;;;;5073680;28;20127;-85
2021/08/11 11:47:09;;;;;;;4.30;2.38;;;24.10;99.90;;;;;;5073030;28;20381;-86
2021/08/11 11:49:36;;;;;;;4.85;2.45;;;24.30;99.90;;;;;;5090532;28;20629;-88
2021/08/11 11:52:02;;;;;;;8.90;2.75;;;24.60;99.90;;;;;;5063395;28;20063;-86
2021/08/11 11:54:30;;;;;;;7.18;2.35;;;24.60;99.90;;;;;;5070857;28;20149;-86
2021/08/11 11:56:56;;;;;;;6.25;2.13;;;24.80;99.90;;;;;;5072462;28;20048;-86
2021/08/11 11:59:23;;;;;;;5.57;2.60;;;24.80;99.90;;;;;;5073150;28;21502;-86
2021/08/11 12:01:50;;;;;;;4.05;2.58;;;24.70;99.90;;;;;;5073138;28;20172;-85
2021/08/11 12:04:23;;;;;;;9.43;2.50;;;24.80;99.90;;;;;;5073580;28;20048;-85
2021/08/11 12:06:49;;;;;;;7.13;2.42;;;24.80;98.90;;;;;;5073199;28;20376;-85
2021/08/11 12:09:14;;;;;;;7.50;2.33;;;24.40;99.90;;;;;;5091083;28;20036;-86
2021/08/11 12:11:40;;;;;;;4.55;2.30;;;24.50;99.90;;;;;;5083251;28;20096;-90
2021/08/11 12:14:06;;;;;;;3.13;2.10;;;24.80;99.90;;;;;;5111660;28;20399;-86
2021/08/11 12:16:40;;;;;;;2.10;2.00;;;24.90;99.90;;;;;;5094044;28;20114;-86
2021/08/11 12:19:13;;;;;;;5.38;2.50;;;25.10;97.90;;;;;;5079460;28;20422;-83
2021/08/11 12:21:39;;;;;;;4.00;2.38;;;25.40;99.90;;;;;;5072523;28;20380;-83
2021/08/11 12:24:05;;;;;;;4.22;2.30;;;25.70;98.60;;;;;;5092677;28;20040;-85
2021/08/11 12:26:32;;;;;;;3.22;2.00;;;25.50;97.70;;;;;;5090911;28;20438;-83
2021/08/11 12:28:59;;;;;;;3.45;1.98;;;25.50;97.20;;;;;;5070405;28;20047;-84
2021/08/11 12:31:28;;;;;;;4.88;2.30;;;25.40;98.80;;;;;;5072542;28;20040;-83
2021/08/11 12:33:58;;;;;;;4.28;2.42;;;25.50;97.70;;;;;;5071527;28;20574;-84
2021/08/11 12:36:31;;;;;;;4.60;2.10;;;25.70;97.20;;;;;;5090968;28;20036;-84
2021/08/11 12:39:12;;;;;;;5.00;1.80;;;26.00;97.20;;;;;;5090060;28;20039;-82
2021/08/11 12:41:44;;;;;;;4.72;1.95;;;26.10;97.10;;;;;;5089575;28;20044;-85
2021/08/11 12:44:23;;;;;;;5.70;2.70;;;26.20;96.80;;;;;;5090099;28;20573;-86